Time;durP1;ratioP1;P1;durP2;ratioP2;P2;SDS_P1;SDS_P2;PMS_P1;PMS_P2;Temp;Humidity;BMP_temperature;BMP_pressure;BME280_temperature;BME280_humidity;BME280_pressure;Samples;Min_cycle;Max_cycle;Signal;HPM_P1;HPM_P2
2022/10/02 00:02:10;;;;;;;1.58;1.48;;;;;;;;;;5044708;28;20063;-78
2022/10/02 00:04:42;;;;;;;1.52;1.02;;;;;;;;;;5044492;28;20029;-78
2022/10/02 00:07:10;;;;;;;3.67;1.20;;;;;;;;;;5044757;28;20026;-79
2022/10/02 00:09:59;;;;;;;4.10;1.45;;;;;;;;;;5028167;28;20397;-77
2022/10/02 00:12:28;;;;;;;4.30;1.40;;;;;;;;;;5044189;28;20357;-78
2022/10/02 00:15:00;;;;;;;3.45;1.48;;;;;;;;;;5029549;28;20048;-78
2022/10/02 00:17:34;;;;;;;8.82;1.52;;;;;;;;;;5044426;28;20032;-78
2022/10/02 00:20:00;;;;;;;4.20;1.48;;;;;;;;;;5029389;28;20028;-78
2022/10/02 00:22:46;;;;;;;2.58;1.10;;;;;;;;;;5044247;28;20365;-78
2022/10/02 00:25:43;;;;;;;5.75;1.50;;;;;;;;;;5046648;28;20060;-78
2022/10/02 00:28:30;;;;;;;1.92;1.25;;;;;;;;;;5047028;28;20029;-78
2022/10/02 00:31:18;;;;;;;1.55;1.33;;;;;;;;;;5049191;28;20025;-78
2022/10/02 00:34:31;;;;;;;1.95;1.65;;;;;;;;;;5047238;28;20037;-77
2022/10/02 00:37:15;;;;;;;3.50;1.50;;;;;;;;;;5047856;28;20028;-78
2022/10/02 00:39:46;;;;;;;9.80;1.60;;;;;;;;;;5047353;28;20035;-77
2022/10/02 00:42:24;;;;;;;2.60;1.40;;;;;;;;;;5047494;28;20041;-78
2022/10/02 00:44:56;;;;;;;5.40;1.60;;;;;;;;;;5051433;28;20056;-80
2022/10/02 00:47:39;;;;;;;3.28;2.50;;;;;;;;;;5051565;28;20152;-79
2022/10/02 00:50:36;;;;;;;5.03;1.58;;;;;;;;;;5052962;28;20457;-78
2022/10/02 00:53:21;;;;;;;3.95;1.50;;;;;;;;;;5051794;28;20017;-78
2022/10/02 00:55:56;;;;;;;2.38;1.15;;;;;;;;;;5053046;28;20033;-78
2022/10/02 00:58:36;;;;;;;1.50;1.30;;;;;;;;;;5051472;28;20433;-77
2022/10/02 01:01:11;;;;;;;5.63;1.75;;;;;;;;;;5051279;28;20448;-78
2022/10/02 01:03:39;;;;;;;3.28;2.03;;;;;;;;;;5050974;28;20085;-78
2022/10/02 01:06:07;;;;;;;3.67;1.67;;;;;;;;;;5051328;28;20436;-77
2022/10/02 01:08:33;;;;;;;2.28;1.60;;;;;;;;;;5051019;28;20029;-79
2022/10/02 01:11:00;;;;;;;2.63;1.55;;;;;;;;;;5051371;28;20021;-78
2022/10/02 01:13:25;;;;;;;3.88;1.60;;;;;;;;;;5051084;28;20033;-77
2022/10/02 01:15:53;;;;;;;2.63;1.55;;;;;;;;;;5051263;28;20017;-78
2022/10/02 01:18:19;;;;;;;1.88;1.48;;;;;;;;;;5051923;28;20025;-76
2022/10/02 01:20:51;;;;;;;4.60;1.50;;;;;;;;;;5050383;28;20048;-78
2022/10/02 01:23:17;;;;;;;;;;;;;;;;;;5052378;28;20398;-78
2022/10/02 01:25:42;;;;;;;3.25;1.80;;;;;;;;;;5048899;28;20641;-77
2022/10/02 01:28:09;;;;;;;2.55;1.60;;;;;;;;;;5049873;28;20680;-78
2022/10/02 01:30:39;;;;;;;3.83;1.90;;;;;;;;;;5050568;28;20056;-78
2022/10/02 01:33:07;;;;;;;8.63;1.60;;;;;;;;;;5051921;28;20063;-76
2022/10/02 01:35:36;;;;;;;5.75;1.60;;;;;;;;;;5050130;28;20025;-79
2022/10/02 01:38:08;;;;;;;3.92;1.70;;;;;;;;;;5050608;28;20169;-79
2022/10/02 01:40:36;;;;;;;9.02;1.42;;;;;;;;;;5052054;28;20045;-78
2022/10/02 01:43:08;;;;;;;6.50;2.03;;;;;;;;;;5050429;28;20029;-79
2022/10/02 01:46:05;;;;;;;7.10;1.77;;;;;;;;;;5050321;28;20040;-78
2022/10/02 01:49:07;;;;;;;15.18;3.22;;;;;;;;;;5050020;28;20032;-77
2022/10/02 01:52:05;;;;;;;4.25;1.55;;;;;;;;;;5050027;28;20021;-77
2022/10/02 01:54:49;;;;;;;2.78;1.60;;;;;;;;;;5050340;28;20155;-78
2022/10/02 01:57:27;;;;;;;3.70;1.48;;;;;;;;;;5049606;28;20627;-78
2022/10/02 02:00:17;;;;;;;1.95;1.25;;;;;;;;;;5051633;28;20040;-78
2022/10/02 02:03:01;;;;;;;4.35;1.63;;;;;;;;;;5049365;28;20028;-78
2022/10/02 02:05:44;;;;;;;3.03;1.50;;;;;;;;;;5049810;28;20029;-77
2022/10/02 02:08:32;;;;;;;2.63;1.60;;;;;;;;;;5050091;28;20025;-78
2022/10/02 02:11:05;;;;;;;4.63;2.90;;;;;;;;;;5051707;28;20029;-78
2022/10/02 02:13:33;;;;;;;2.20;1.52;;;;;;;;;;5049812;28;20032;-78
2022/10/02 02:16:32;;;;;;;2.63;1.30;;;;;;;;;;5050217;28;20035;-79
2022/10/02 02:19:20;;;;;;;4.40;1.60;;;;;;;;;;5034881;28;20029;-78
2022/10/02 02:21:52;;;;;;;3.35;1.60;;;;;;;;;;5049705;28;20017;-78
2022/10/02 02:24:25;;;;;;;2.53;1.40;;;;;;;;;;5047265;28;20013;-78
2022/10/02 02:26:54;;;;;;;2.90;1.50;;;;;;;;;;5029859;28;20021;-77
2022/10/02 02:29:21;;;;;;;2.50;1.45;;;;;;;;;;5029654;28;20144;-79
2022/10/02 02:31:54;;;;;;;1.60;1.38;;;;;;;;;;5031048;28;20462;-78
2022/10/02 02:34:22;;;;;;;5.53;1.77;;;;;;;;;;5013005;28;20029;-78
2022/10/02 02:36:54;;;;;;;3.40;1.52;;;;;;;;;;5030995;28;20089;-77
2022/10/02 02:39:29;;;;;;;4.95;1.58;;;;;;;;;;5029485;28;20070;-77
2022/10/02 02:42:00;;;;;;;4.45;1.50;;;;;;;;;;5031186;28;20377;-77
2022/10/02 02:44:35;;;;;;;4.20;1.50;;;;;;;;;;5029273;28;20083;-76
2022/10/02 02:47:17;;;;;;;4.03;1.83;;;;;;;;;;5012981;28;20079;-78
2022/10/02 02:50:02;;;;;;;7.65;2.10;;;;;;;;;;5029001;28;20049;-77
2022/10/02 02:52:32;;;;;;;2.70;1.90;;;;;;;;;;5029278;28;20029;-77
2022/10/02 02:55:08;;;;;;;2.95;1.80;;;;;;;;;;5030782;28;20021;-78
2022/10/02 02:57:44;;;;;;;2.78;1.77;;;;;;;;;;5028986;28;20600;-77
2022/10/02 03:00:14;;;;;;;5.63;1.90;;;;;;;;;;5012720;28;20350;-76
2022/10/02 03:02:39;;;;;;;3.25;1.90;;;;;;;;;;5028854;28;20044;-76
2022/10/02 03:05:16;;;;;;;5.07;2.00;;;;;;;;;;5028965;28;20028;-78
2022/10/02 03:07:53;;;;;;;6.32;2.10;;;;;;;;;;5029325;28;20116;-77
2022/10/02 03:10:51;;;;;;;2.88;1.63;;;;;;;;;;5031079;28;20067;-78
2022/10/02 03:13:52;;;;;;;6.78;1.75;;;;;;;;;;5029880;28;20078;-78
2022/10/02 03:16:51;;;;;;;6.95;1.73;;;;;;;;;;4933854;29;20035;-78
2022/10/02 03:19:32;;;;;;;3.22;1.83;;;;;;;;;;5012865;28;20025;-77
2022/10/02 03:22:22;;;;;;;2.92;1.77;;;;;;;;;;5012971;28;20064;-78
2022/10/02 03:24:59;;;;;;;2.17;1.67;;;;;;;;;;5030063;28;20029;-78
2022/10/02 03:27:40;;;;;;;4.22;2.30;;;;;;;;;;5029623;28;20034;-77
2022/10/02 03:30:11;;;;;;;4.10;1.60;;;;;;;;;;5045113;28;20134;-78
2022/10/02 03:32:39;;;;;;;6.50;2.00;;;;;;;;;;5045209;28;20036;-77
2022/10/02 03:35:09;;;;;;;3.92;1.73;;;;;;;;;;5030303;28;20033;-78
2022/10/02 03:37:35;;;;;;;3.58;1.77;;;;;;;;;;5045408;28;20147;-79
2022/10/02 03:40:00;;;;;;;4.63;1.92;;;;;;;;;;5029791;28;20127;-79
2022/10/02 03:42:30;;;;;;;6.50;2.40;;;;;;;;;;5044271;28;20029;-78
2022/10/02 03:44:55;;;;;;;3.40;1.42;;;;;;;;;;5029879;28;20032;-79
2022/10/02 03:47:21;;;;;;;5.20;1.90;;;;;;;;;;5030313;28;20025;-78
2022/10/02 03:49:46;;;;;;;8.32;2.03;;;;;;;;;;5045035;28;20048;-78
2022/10/02 03:52:17;;;;;;;7.55;2.20;;;;;;;;;;5030061;28;20033;-78
2022/10/02 03:54:43;;;;;;;2.95;2.00;;;;;;;;;;5044697;28;20033;-78
2022/10/02 03:57:14;;;;;;;4.10;2.20;;;;;;;;;;5045164;28;20025;-78
2022/10/02 03:59:55;;;;;;;4.20;2.28;;;;;;;;;;5044911;28;20072;-76
2022/10/02 04:02:38;;;;;;;8.73;2.67;;;;;;;;;;5045114;28;20468;-77
2022/10/02 04:05:13;;;;;;;4.38;2.53;;;;;;;;;;5044976;28;20037;-78
2022/10/02 04:07:42;;;;;;;2.38;2.17;;;;;;;;;;5045135;28;20036;-79
2022/10/02 04:10:13;;;;;;;5.40;2.08;;;;;;;;;;5029676;28;20060;-79
2022/10/02 04:12:51;;;;;;;7.55;2.53;;;;;;;;;;5029576;28;20104;-78
2022/10/02 04:15:23;;;;;;;6.00;2.55;;;;;;;;;;5029640;28;20041;-77
2022/10/02 04:17:52;;;;;;;;;;;;;;;;;;5046011;28;20029;-77
2022/10/02 04:20:25;;;;;;;4.75;2.78;;;;;;;;;;5048488;28;19913;-77
2022/10/02 04:23:05;;;;;;;5.03;2.33;;;;;;;;;;5048696;28;20030;-78
2022/10/02 04:25:41;;;;;;;2.92;2.42;;;;;;;;;;5051877;28;20017;-78
2022/10/02 04:28:13;;;;;;;4.60;3.17;;;;;;;;;;5052636;28;20477;-77
2022/10/02 04:30:38;;;;;;;6.93;3.00;;;;;;;;;;5051862;28;20088;-77
2022/10/02 04:33:13;;;;;;;4.75;2.65;;;;;;;;;;5051909;28;20029;-77
2022/10/02 04:36:00;;;;;;;7.50;2.65;;;;;;;;;;5051731;28;20848;-77
2022/10/02 04:38:34;;;;;;;4.72;2.13;;;;;;;;;;5052011;28;20040;-78
2022/10/02 04:41:18;;;;;;;6.47;2.95;;;;;;;;;;5052911;28;20038;-77
2022/10/02 04:43:47;;;;;;;6.28;2.70;;;;;;;;;;5051744;28;20028;-78
2022/10/02 04:46:39;;;;;;;6.57;2.55;;;;;;;;;;5053081;28;20021;-77
2022/10/02 04:49:17;;;;;;;7.60;2.72;;;;;;;;;;5036141;28;20073;-78
2022/10/02 04:52:01;;;;;;;6.25;3.08;;;;;;;;;;5051980;28;20147;-79
2022/10/02 04:54:39;;;;;;;4.50;3.03;;;;;;;;;;5051807;28;20082;-78
2022/10/02 04:57:24;;;;;;;5.03;2.85;;;;;;;;;;5051768;28;20052;-78
2022/10/02 05:00:16;;;;;;;7.07;2.88;;;;;;;;;;5051279;28;20021;-78
2022/10/02 05:03:00;;;;;;;6.65;3.78;;;;;;;;;;5052797;28;20211;-77
2022/10/02 05:05:57;;;;;;;5.85;2.92;;;;;;;;;;5051493;28;20068;-78
2022/10/02 05:08:51;;;;;;;8.95;3.03;;;;;;;;;;5052842;28;20033;-78
2022/10/02 05:11:54;;;;;;;5.70;3.22;;;;;;;;;;5052769;28;20028;-76
2022/10/02 05:14:34;;;;;;;3.90;2.50;;;;;;;;;;5052855;28;20054;-77
2022/10/02 05:17:18;;;;;;;6.45;3.70;;;;;;;;;;5051457;28;20038;-76
2022/10/02 05:20:23;;;;;;;4.97;3.50;;;;;;;;;;5052315;28;20033;-78
2022/10/02 05:23:11;;;;;;;9.13;2.97;;;;;;;;;;5052368;28;20112;-77
2022/10/02 05:26:02;;;;;;;4.53;2.97;;;;;;;;;;5035400;28;20021;-78
2022/10/02 05:28:49;;;;;;;4.70;2.60;;;;;;;;;;5014406;28;20505;-78
2022/10/02 05:31:39;;;;;;;6.35;3.20;;;;;;;;;;5014616;28;20109;-78
2022/10/02 05:34:37;;;;;;;7.22;3.38;;;;;;;;;;5014543;28;20032;-77
2022/10/02 05:37:38;;;;;;;5.28;3.25;;;;;;;;;;4988105;28;20128;-76
2022/10/02 05:40:23;;;;;;;7.00;3.47;;;;;;;;;;5030937;28;20041;-78
2022/10/02 05:42:52;;;;;;;5.47;3.47;;;;;;;;;;5030616;28;20406;-78
2022/10/02 05:45:27;;;;;;;4.68;3.33;;;;;;;;;;5014177;28;20049;-77
2022/10/02 05:48:00;;;;;;;6.05;3.63;;;;;;;;;;5014388;28;20558;-79
2022/10/02 05:50:34;;;;;;;10.70;3.80;;;;;;;;;;5032665;28;20080;-78
2022/10/02 05:53:27;;;;;;;6.53;3.60;;;;;;;;;;5032997;28;20052;-78
2022/10/02 05:55:59;;;;;;;5.85;2.95;;;;;;;;;;5032326;28;20049;-78
2022/10/02 05:58:56;;;;;;;5.47;3.38;;;;;;;;;;5014591;28;20131;-78
2022/10/02 06:01:32;;;;;;;8.45;3.42;;;;;;;;;;4971968;28;20116;-76
2022/10/02 06:04:10;;;;;;;7.25;3.28;;;;;;;;;;5015415;28;20045;-78
2022/10/02 06:06:47;;;;;;;6.05;3.30;;;;;;;;;;5040396;28;20026;-78
2022/10/02 06:09:19;;;;;;;6.32;3.60;;;;;;;;;;5020182;28;20044;-79
2022/10/02 06:12:25;;;;;;;7.15;3.25;;;;;;;;;;5031821;28;20025;-80
2022/10/02 06:15:01;;;;;;;9.35;3.28;;;;;;;;;;5009533;28;20037;-76
2022/10/02 06:17:36;;;;;;;7.70;3.42;;;;;;;;;;5014240;28;20026;-78
2022/10/02 06:20:11;;;;;;;5.07;3.58;;;;;;;;;;5030443;28;20056;-79
2022/10/02 06:22:49;;;;;;;7.63;3.30;;;;;;;;;;5031216;28;20033;-79
2022/10/02 06:25:45;;;;;;;5.38;3.72;;;;;;;;;;5041967;28;20749;-78
2022/10/02 06:28:18;;;;;;;10.98;3.70;;;;;;;;;;5049842;28;20028;-80
2022/10/02 06:30:48;;;;;;;6.85;3.13;;;;;;;;;;5051382;28;20041;-79
2022/10/02 06:33:25;;;;;;;7.88;3.35;;;;;;;;;;5051567;28;20040;-79
2022/10/02 06:36:20;;;;;;;4.43;3.00;;;;;;;;;;5033091;28;20033;-80
2022/10/02 06:38:57;;;;;;;11.73;3.30;;;;;;;;;;5050949;28;20033;-79
2022/10/02 06:41:37;;;;;;;6.88;3.40;;;;;;;;;;5050425;28;20142;-79
2022/10/02 06:44:15;;;;;;;6.72;3.55;;;;;;;;;;5049683;28;20032;-79
2022/10/02 06:46:53;;;;;;;8.43;3.00;;;;;;;;;;5050383;28;20035;-80
2022/10/02 06:49:25;;;;;;;9.52;3.35;;;;;;;;;;5052046;28;20017;-78
2022/10/02 06:51:53;;;;;;;;;;;;;;;;;;5049647;28;20108;-79
2022/10/02 06:54:46;;;;;;;10.15;3.05;;;;;;;;;;5049624;28;19986;-78
2022/10/02 06:57:20;;;;;;;9.18;2.97;;;;;;;;;;5051075;28;20127;-78
2022/10/02 07:00:11;;;;;;;5.22;2.60;;;;;;;;;;5050059;28;20024;-79
2022/10/02 07:03:15;;;;;;;3.13;2.20;;;;;;;;;;5050596;28;20497;-80
2022/10/02 07:06:06;;;;;;;10.30;3.42;;;;;;;;;;5050426;28;20028;-79
2022/10/02 07:08:43;;;;;;;4.45;2.40;;;;;;;;;;5049093;28;20029;-78
2022/10/02 07:11:38;;;;;;;7.75;2.45;;;;;;;;;;5050342;28;20094;-79
2022/10/02 07:14:15;;;;;;;7.20;2.35;;;;;;;;;;5050199;28;20104;-78
2022/10/02 07:17:06;;;;;;;7.20;3.08;;;;;;;;;;5049152;28;20040;-78
2022/10/02 07:19:50;;;;;;;3.85;1.90;;;;;;;;;;5041729;28;20037;-78
2022/10/02 07:22:53;;;;;;;7.88;2.78;;;;;;;;;;5048850;28;20036;-79
2022/10/02 07:25:35;;;;;;;9.07;2.30;;;;;;;;;;5048911;28;20482;-79
2022/10/02 07:28:11;;;;;;;8.05;2.65;;;;;;;;;;5048787;28;20468;-78
2022/10/02 07:31:00;;;;;;;3.60;2.22;;;;;;;;;;5050394;28;20449;-80
2022/10/02 07:33:44;;;;;;;8.52;2.92;;;;;;;;;;5048747;28;20032;-80
2022/10/02 07:36:28;;;;;;;3.05;1.73;;;;;;;;;;5049587;28;20028;-79
2022/10/02 07:39:24;;;;;;;6.20;2.13;;;;;;;;;;5050318;28;20027;-80
2022/10/02 07:41:59;;;;;;;6.50;2.92;;;;;;;;;;5050344;28;20049;-80
2022/10/02 07:44:30;;;;;;;3.70;2.03;;;;;;;;;;5049720;28;20033;-80
2022/10/02 07:47:21;;;;;;;3.40;1.73;;;;;;;;;;5049356;28;20029;-80
2022/10/02 07:50:02;;;;;;;4.65;2.38;;;;;;;;;;5048997;28;20091;-79
2022/10/02 07:52:45;;;;;;;9.63;2.60;;;;;;;;;;5048063;28;20049;-79
2022/10/02 07:55:14;;;;;;;8.32;1.98;;;;;;;;;;5048862;28;20032;-79
2022/10/02 07:57:43;;;;;;;10.65;1.95;;;;;;;;;;5049319;28;20063;-80
2022/10/02 08:00:17;;;;;;;8.13;2.58;;;;;;;;;;5049585;28;20124;-79
2022/10/02 08:02:55;;;;;;;7.85;2.20;;;;;;;;;;5050475;28;20037;-77
2022/10/02 08:05:25;;;;;;;7.25;1.98;;;;;;;;;;5049525;28;20067;-78
2022/10/02 08:08:19;;;;;;;6.18;2.40;;;;;;;;;;5048771;28;20033;-79
2022/10/02 08:10:50;;;;;;;4.65;2.08;;;;;;;;;;5049355;28;20029;-78
2022/10/02 08:13:19;;;;;;;3.92;1.95;;;;;;;;;;5048879;28;20068;-79
2022/10/02 08:15:49;;;;;;;12.80;2.25;;;;;;;;;;5048772;28;20152;-80
2022/10/02 08:18:27;;;;;;;5.07;2.05;;;;;;;;;;5048258;28;20044;-78
2022/10/02 08:20:53;;;;;;;7.05;2.85;;;;;;;;;;5048934;28;20025;-80
2022/10/02 08:23:20;;;;;;;4.15;1.75;;;;;;;;;;5048317;28;20033;-77
2022/10/02 08:26:03;;;;;;;6.68;1.88;;;;;;;;;;5032609;28;20060;-76
2022/10/02 08:28:56;;;;;;;5.32;2.05;;;;;;;;;;5030210;28;20025;-75
2022/10/02 08:31:24;;;;;;;5.03;1.80;;;;;;;;;;5029275;28;20025;-74
2022/10/02 08:33:50;;;;;;;4.55;1.83;;;;;;;;;;5031064;28;20089;-75
2022/10/02 08:36:31;;;;;;;7.00;1.80;;;;;;;;;;5013749;28;20066;-77
2022/10/02 08:39:17;;;;;;;5.43;1.73;;;;;;;;;;5013566;28;20103;-77
2022/10/02 08:42:11;;;;;;;7.32;2.88;;;;;;;;;;5012247;28;20049;-78
2022/10/02 08:44:42;;;;;;;5.70;2.20;;;;;;;;;;5028337;28;20025;-76
2022/10/02 08:47:08;;;;;;;6.60;2.00;;;;;;;;;;5011895;28;20485;-77
2022/10/02 08:49:40;;;;;;;8.63;1.50;;;;;;;;;;5012181;28;20099;-76
2022/10/02 08:52:31;;;;;;;8.93;2.22;;;;;;;;;;5011845;28;20049;-77
2022/10/02 08:55:16;;;;;;;5.40;2.17;;;;;;;;;;4981979;28;20188;-77
2022/10/02 08:58:15;;;;;;;3.10;1.75;;;;;;;;;;5011741;28;20029;-77
2022/10/02 09:00:58;;;;;;;6.00;2.10;;;;;;;;;;5000423;28;20136;-77
2022/10/02 09:03:41;;;;;;;5.55;1.98;;;;;;;;;;5029642;28;20022;-77
2022/10/02 09:06:15;;;;;;;7.13;1.70;;;;;;;;;;5033474;28;20017;-77
2022/10/02 09:08:59;;;;;;;4.45;1.65;;;;;;;;;;5016197;28;20033;-76
2022/10/02 09:11:41;;;;;;;7.05;2.40;;;;;;;;;;5033868;28;20064;-76
2022/10/02 09:14:25;;;;;;;7.40;1.73;;;;;;;;;;5015501;28;20037;-77
2022/10/02 09:17:18;;;;;;;6.40;1.42;;;;;;;;;;5034406;28;20022;-77
2022/10/02 09:20:21;;;;;;;3.28;1.48;;;;;;;;;;5017470;28;20033;-76
2022/10/02 09:23:01;;;;;;;5.72;1.80;;;;;;;;;;5033324;28;20120;-76
2022/10/02 09:25:34;;;;;;;8.77;1.73;;;;;;;;;;5029282;28;20017;-76
2022/10/02 09:28:20;;;;;;;6.97;1.95;;;;;;;;;;5053689;28;20063;-77
2022/10/02 09:31:04;;;;;;;9.90;2.25;;;;;;;;;;5052253;28;20025;-77
2022/10/02 09:33:45;;;;;;;7.75;2.53;;;;;;;;;;5051353;28;20028;-76
2022/10/02 09:36:34;;;;;;;3.25;1.77;;;;;;;;;;5051285;28;20090;-77
2022/10/02 09:39:56;;;;;;;4.90;2.22;;;;;;;;;;5051287;28;20028;-78
2022/10/02 09:42:43;;;;;;;7.80;4.00;;;;;;;;;;5009659;28;20587;-78
2022/10/02 09:45:32;;;;;;;6.57;2.85;;;;;;;;;;5010156;28;20073;-77
2022/10/02 09:48:34;;;;;;;4.63;2.00;;;;;;;;;;5041165;28;20032;-76
2022/10/02 09:51:09;;;;;;;5.22;1.90;;;;;;;;;;5053502;28;20114;-76
2022/10/02 09:54:17;;;;;;;9.02;2.58;;;;;;;;;;5051609;28;20126;-77
2022/10/02 09:57:20;;;;;;;5.97;1.77;;;;;;;;;;5052676;28;20112;-77
2022/10/02 10:00:30;;;;;;;5.35;1.65;;;;;;;;;;5051750;28;20086;-77
2022/10/02 10:03:17;;;;;;;2.58;1.27;;;;;;;;;;5009912;28;20144;-77
2022/10/02 10:06:19;;;;;;;5.38;1.27;;;;;;;;;;5009598;28;20161;-76
2022/10/02 10:09:23;;;;;;;8.95;2.30;;;;;;;;;;5046511;28;20033;-77
2022/10/02 10:12:17;;;;;;;8.35;2.17;;;;;;;;;;5050366;28;20123;-76
2022/10/02 10:15:01;;;;;;;9.70;2.10;;;;;;;;;;5013842;28;20514;-77
2022/10/02 10:17:29;;;;;;;5.75;1.40;;;;;;;;;;5050508;28;20539;-77
2022/10/02 10:20:07;;;;;;;4.90;1.67;;;;;;;;;;5051827;28;20040;-76
2022/10/02 10:22:37;;;;;;;3.10;0.90;;;;;;;;;;5050918;28;20588;-76
2022/10/02 10:25:30;;;;;;;2.88;1.15;;;;;;;;;;5052126;28;20027;-77
2022/10/02 10:28:42;;;;;;;5.28;1.48;;;;;;;;;;5050578;28;20107;-76
2022/10/02 10:31:30;;;;;;;3.38;1.30;;;;;;;;;;5050513;28;20052;-77
2022/10/02 10:34:45;;;;;;;3.33;1.13;;;;;;;;;;5051541;28;20025;-77
2022/10/02 10:40:16;;;;;;;5.60;1.30;;;;;;;;;;5051526;28;20503;-75
2022/10/02 10:42:56;;;;;;;2.28;1.00;;;;;;;;;;5050487;28;20473;-77
2022/10/02 10:45:58;;;;;;;1.75;0.80;;;;;;;;;;5050666;28;20108;-76
2022/10/02 10:48:51;;;;;;;3.97;1.00;;;;;;;;;;5050492;28;20029;-77
2022/10/02 10:51:17;;;;;;;3.20;1.00;;;;;;;;;;5051309;28;20043;-76
2022/10/02 10:53:48;;;;;;;3.47;1.10;;;;;;;;;;5052155;28;20021;-77
2022/10/02 10:56:35;;;;;;;1.10;0.88;;;;;;;;;;5050670;28;20028;-77
2022/10/02 10:59:26;;;;;;;3.88;1.08;;;;;;;;;;5050889;28;20040;-77
2022/10/02 11:02:16;;;;;;;4.05;1.20;;;;;;;;;;5049633;28;20742;-77
2022/10/02 11:05:23;;;;;;;3.72;1.80;;;;;;;;;;5051267;28;20521;-76
2022/10/02 11:08:08;;;;;;;3.85;0.90;;;;;;;;;;5049706;28;20086;-77
2022/10/02 11:10:58;;;;;;;2.83;0.80;;;;;;;;;;5049554;28;20034;-77
2022/10/02 11:13:48;;;;;;;4.63;1.20;;;;;;;;;;5050055;28;20036;-78
2022/10/02 11:16:40;;;;;;;1.38;0.80;;;;;;;;;;5050705;28;20029;-77
2022/10/02 11:19:43;;;;;;;1.63;0.90;;;;;;;;;;5050783;28;20083;-76
2022/10/02 11:22:20;;;;;;;2.33;0.80;;;;;;;;;;5049561;28;20033;-77
2022/10/02 11:25:00;;;;;;;1.73;0.73;;;;;;;;;;5049678;28;20029;-75
2022/10/02 11:27:37;;;;;;;3.65;1.00;;;;;;;;;;5050436;28;20473;-75
2022/10/02 11:30:28;;;;;;;4.63;1.17;;;;;;;;;;5051525;28;20112;-77
2022/10/02 11:33:25;;;;;;;3.30;1.48;;;;;;;;;;5049415;28;20052;-76
2022/10/02 11:36:08;;;;;;;4.40;1.15;;;;;;;;;;5050425;28;20021;-77
2022/10/02 11:38:57;;;;;;;3.22;1.02;;;;;;;;;;5049133;28;20033;-77
2022/10/02 11:41:49;;;;;;;3.22;1.30;;;;;;;;;;5030497;28;20397;-77
2022/10/02 11:44:21;;;;;;;3.63;1.20;;;;;;;;;;5050198;28;20037;-81
2022/10/02 11:47:09;;;;;;;4.18;1.30;;;;;;;;;;5049332;28;20598;-79
2022/10/02 11:50:00;;;;;;;2.72;0.90;;;;;;;;;;5050649;28;20078;-80
2022/10/02 11:52:53;;;;;;;4.00;1.65;;;;;;;;;;5051035;28;20036;-79
2022/10/02 11:55:37;;;;;;;6.25;1.13;;;;;;;;;;5050539;28;20028;-78
2022/10/02 11:58:28;;;;;;;3.65;1.30;;;;;;;;;;5050551;28;20042;-79
2022/10/02 12:01:04;;;;;;;3.78;1.15;;;;;;;;;;5051456;28;20029;-79
2022/10/02 12:03:51;;;;;;;2.45;0.95;;;;;;;;;;5048533;28;20025;-79
2022/10/02 12:06:44;;;;;;;2.83;1.17;;;;;;;;;;5048443;28;20036;-80
2022/10/02 12:09:31;;;;;;;3.22;1.10;;;;;;;;;;5049763;28;20056;-81
2022/10/02 12:12:32;;;;;;;1.73;0.90;;;;;;;;;;5050230;28;20366;-77
2022/10/02 12:15:02;;;;;;;4.68;1.27;;;;;;;;;;5050258;28;20036;-80
2022/10/02 12:18:22;;;;;;;4.28;1.73;;;;;;;;;;5051428;28;20101;-78
2022/10/02 12:27:16;;;;;;;3.13;1.33;;;;;;;;;;5032576;28;20040;-78
2022/10/02 12:30:14;;;;;;;4.07;1.83;;;;;;;;;;5014484;28;20026;-80
2022/10/02 12:32:58;;;;;;;5.53;1.90;;;;;;;;;;5013253;28;20064;-80
2022/10/02 12:35:34;;;;;;;1.85;1.45;;;;;;;;;;5031369;28;20026;-79
2022/10/02 12:38:06;;;;;;;5.53;1.60;;;;;;;;;;5012874;28;20028;-78
2022/10/02 12:40:40;;;;;;;;;;;;;;;;;;5034245;28;20037;-77
2022/10/02 12:43:33;;;;;;;4.03;1.60;;;;;;;;;;5033030;28;19952;-79
2022/10/02 12:46:17;;;;;;;3.25;1.98;;;;;;;;;;5017176;28;20039;-77
2022/10/02 12:48:56;;;;;;;7.80;1.67;;;;;;;;;;5015743;28;20029;-79
2022/10/02 12:51:21;;;;;;;3.65;2.05;;;;;;;;;;5015451;28;20554;-78
2022/10/02 12:54:04;;;;;;;5.68;2.38;;;;;;;;;;5016134;28;20040;-80
2022/10/02 12:56:51;;;;;;;7.97;3.67;;;;;;;;;;5015880;28;20470;-79
2022/10/02 12:59:19;;;;;;;4.38;1.92;;;;;;;;;;5033406;28;20056;-80
2022/10/02 13:02:25;;;;;;;7.40;1.80;;;;;;;;;;5033599;28;20021;-79
2022/10/02 13:05:19;;;;;;;3.47;1.98;;;;;;;;;;5032911;28;20030;-79
2022/10/02 13:08:08;;;;;;;7.18;2.40;;;;;;;;;;5015612;28;20107;-79
2022/10/02 13:10:40;;;;;;;3.65;1.77;;;;;;;;;;5032477;28;20076;-79
2022/10/02 13:13:23;;;;;;;9.40;2.70;;;;;;;;;;5015832;28;20033;-78
2022/10/02 13:15:55;;;;;;;6.97;2.47;;;;;;;;;;5015804;28;20034;-79
2022/10/02 13:18:49;;;;;;;5.93;1.77;;;;;;;;;;5014798;28;20135;-78
2022/10/02 13:21:36;;;;;;;7.22;2.10;;;;;;;;;;5033394;28;20458;-79
2022/10/02 13:24:24;;;;;;;7.43;2.08;;;;;;;;;;5017122;28;20095;-80
2022/10/02 13:27:05;;;;;;;9.25;2.25;;;;;;;;;;5053528;28;20028;-79
2022/10/02 13:29:41;;;;;;;9.18;2.65;;;;;;;;;;5051999;28;20500;-79
2022/10/02 13:32:22;;;;;;;5.45;1.92;;;;;;;;;;5051437;28;20048;-79
2022/10/02 13:34:59;;;;;;;9.00;1.67;;;;;;;;;;5053433;28;20021;-80
2022/10/02 13:37:36;;;;;;;3.95;1.23;;;;;;;;;;5051733;28;20039;-80
2022/10/02 13:40:14;;;;;;;6.63;2.03;;;;;;;;;;5049344;28;20080;-79
2022/10/02 13:43:10;;;;;;;5.38;1.60;;;;;;;;;;5048742;28;20036;-79
2022/10/02 13:46:07;;;;;;;4.82;1.50;;;;;;;;;;5032781;28;20049;-80
2022/10/02 13:48:53;;;;;;;3.28;1.40;;;;;;;;;;5034194;28;20030;-79
2022/10/02 13:51:38;;;;;;;3.75;1.80;;;;;;;;;;5048560;28;20078;-78
2022/10/02 13:54:20;;;;;;;1.65;1.15;;;;;;;;;;5033784;28;20026;-80
2022/10/02 13:57:04;;;;;;;7.63;1.50;;;;;;;;;;5050291;28;20026;-79
2022/10/02 13:59:44;;;;;;;3.35;1.27;;;;;;;;;;5050814;28;20025;-80
2022/10/02 14:02:38;;;;;;;4.43;1.08;;;;;;;;;;5053766;28;20051;-80
2022/10/02 14:05:16;;;;;;;2.67;0.90;;;;;;;;;;5034765;28;20056;-81
2022/10/02 14:07:48;;;;;;;1.70;1.27;;;;;;;;;;5049575;28;20161;-79
2022/10/02 14:10:32;;;;;;;4.68;0.88;;;;;;;;;;5049373;28;20033;-79
2022/10/02 14:13:34;;;;;;;1.30;0.60;;;;;;;;;;5048697;28;20255;-80
2022/10/02 14:16:39;;;;;;;1.45;0.75;;;;;;;;;;5032692;28;20057;-80
2022/10/02 14:19:40;;;;;;;2.15;0.90;;;;;;;;;;5053310;28;20107;-79
2022/10/02 14:22:27;;;;;;;4.82;0.85;;;;;;;;;;5017651;28;20044;-81
2022/10/02 14:25:28;;;;;;;5.15;2.05;;;;;;;;;;5045959;28;20021;-81
2022/10/02 14:28:04;;;;;;;2.25;0.70;;;;;;;;;;5016535;28;20148;-81
2022/10/02 14:30:58;;;;;;;3.38;0.95;;;;;;;;;;5028733;28;20077;-79
2022/10/02 14:33:33;;;;;;;3.28;0.93;;;;;;;;;;5011636;28;20910;-80
2022/10/02 14:36:14;;;;;;;3.40;0.73;;;;;;;;;;5012139;28;20021;-78
2022/10/02 14:39:12;;;;;;;2.17;1.20;;;;;;;;;;5012319;28;20573;-80
2022/10/02 14:41:55;;;;;;;2.38;1.10;;;;;;;;;;4984000;28;20046;-79
2022/10/02 14:44:40;;;;;;;1.83;1.08;;;;;;;;;;5011354;28;20060;-80
2022/10/02 14:47:29;;;;;;;5.47;1.80;;;;;;;;;;5026776;28;20095;-77
2022/10/02 14:50:42;;;;;;;3.80;2.33;;;;;;;;;;5012114;28;20063;-77
2022/10/02 14:53:25;;;;;;;1.65;0.95;;;;;;;;;;4957131;28;20037;-80
2022/10/02 14:56:27;;;;;;;2.17;1.10;;;;;;;;;;5012421;28;20065;-79
2022/10/02 14:59:20;;;;;;;6.13;1.60;;;;;;;;;;5012156;28;20030;-79
2022/10/02 15:02:00;;;;;;;1.50;1.13;;;;;;;;;;5026684;28;20021;-79
2022/10/02 15:05:13;;;;;;;2.55;0.82;;;;;;;;;;5026194;28;20092;-82
2022/10/02 15:07:39;;;;;;;2.80;1.05;;;;;;;;;;4934088;29;20086;-79
2022/10/02 15:10:15;;;;;;;3.10;1.02;;;;;;;;;;4950689;29;20356;-79
2022/10/02 15:13:04;;;;;;;3.95;1.17;;;;;;;;;;4984689;28;20077;-79
2022/10/02 15:15:39;;;;;;;6.22;2.58;;;;;;;;;;5011453;28;20121;-80
2022/10/02 15:18:31;;;;;;;2.65;1.40;;;;;;;;;;5013465;28;20757;-80
2022/10/02 15:21:04;;;;;;;8.02;1.95;;;;;;;;;;5013018;28;20504;-80
2022/10/02 15:23:35;;;;;;;4.68;1.85;;;;;;;;;;5011723;28;20022;-79
2022/10/02 15:26:26;;;;;;;6.20;1.05;;;;;;;;;;5029587;28;20017;-80
2022/10/02 15:29:04;;;;;;;2.15;1.25;;;;;;;;;;5047050;28;20116;-79
2022/10/02 15:31:46;;;;;;;4.65;1.88;;;;;;;;;;5032269;28;20022;-79
2022/10/02 15:34:20;;;;;;;;;;;;;;;;;;5046708;28;20037;-81
2022/10/02 15:37:00;;;;;;;3.00;1.48;;;;;;;;;;5046871;28;19926;-78
2022/10/02 15:39:41;;;;;;;5.53;1.33;;;;;;;;;;5030996;28;20033;-80
2022/10/02 15:42:08;;;;;;;2.03;1.60;;;;;;;;;;5049629;28;20029;-80
2022/10/02 15:44:37;;;;;;;5.07;1.50;;;;;;;;;;5049243;28;20052;-79
2022/10/02 15:47:09;;;;;;;2.42;1.38;;;;;;;;;;5049599;28;20159;-79
2022/10/02 15:50:07;;;;;;;8.40;1.45;;;;;;;;;;5051640;28;20449;-81
2022/10/02 15:52:41;;;;;;;2.55;1.15;;;;;;;;;;5048918;28;20040;-80
2022/10/02 15:55:24;;;;;;;3.92;1.70;;;;;;;;;;5049234;28;20054;-78
2022/10/02 15:58:07;;;;;;;3.75;1.63;;;;;;;;;;5049689;28;20417;-79
2022/10/02 16:01:03;;;;;;;6.25;2.33;;;;;;;;;;5050565;28;20052;-80
2022/10/02 16:03:49;;;;;;;3.35;1.67;;;;;;;;;;5049271;28;20078;-79
2022/10/02 16:06:49;;;;;;;3.05;1.65;;;;;;;;;;5049624;28;20028;-78
2022/10/02 16:09:38;;;;;;;5.38;1.70;;;;;;;;;;5050009;28;20021;-81
2022/10/02 16:12:28;;;;;;;3.45;1.50;;;;;;;;;;5048646;28;20396;-80
2022/10/02 16:15:12;;;;;;;5.47;1.70;;;;;;;;;;5049359;28;20377;-79
2022/10/02 16:18:04;;;;;;;2.95;1.65;;;;;;;;;;5049252;28;20025;-79
2022/10/02 16:20:41;;;;;;;7.88;1.73;;;;;;;;;;5049595;28;20044;-78
2022/10/02 16:23:25;;;;;;;3.13;1.77;;;;;;;;;;5049491;28;20187;-79